sensor_id;sensor_type;location;lat;lon;timestamp;temperature;humidity
74416;SHT31;62850;42.428;25.618;2023-03-02T00:00:45;5.70;86.58
74416;SHT31;62850;42.428;25.618;2023-03-02T00:03:13;5.77;86.38
74416;SHT31;62850;42.428;25.618;2023-03-02T00:05:39;5.71;86.28
74416;SHT31;62850;42.428;25.618;2023-03-02T00:08:07;5.75;86.15
74416;SHT31;62850;42.428;25.618;2023-03-02T00:10:34;5.81;86.10
74416;SHT31;62850;42.428;25.618;2023-03-02T00:13:00;5.82;85.87
74416;SHT31;62850;42.428;25.618;2023-03-02T00:15:26;5.79;86.15
74416;SHT31;62850;42.428;25.618;2023-03-02T00:17:51;5.77;86.19
74416;SHT31;62850;42.428;25.618;2023-03-02T00:20:17;5.74;86.23
74416;SHT31;62850;42.428;25.618;2023-03-02T00:22:44;5.71;86.32
74416;SHT31;62850;42.428;25.618;2023-03-02T00:25:11;5.71;86.42
74416;SHT31;62850;42.428;25.618;2023-03-02T00:27:37;5.64;87.05
74416;SHT31;62850;42.428;25.618;2023-03-02T00:30:03;5.61;87.08
74416;SHT31;62850;42.428;25.618;2023-03-02T00:32:28;5.62;86.89
74416;SHT31;62850;42.428;25.618;2023-03-02T00:34:54;5.62;86.87
74416;SHT31;62850;42.428;25.618;2023-03-02T00:37:19;5.68;86.96
74416;SHT31;62850;42.428;25.618;2023-03-02T00:39:45;5.70;87.01
74416;SHT31;62850;42.428;25.618;2023-03-02T00:42:10;5.70;86.94
74416;SHT31;62850;42.428;25.618;2023-03-02T00:44:36;5.72;86.87
74416;SHT31;62850;42.428;25.618;2023-03-02T00:47:01;5.75;86.90
74416;SHT31;62850;42.428;25.618;2023-03-02T00:49:27;5.74;86.97
74416;SHT31;62850;42.428;25.618;2023-03-02T00:51:53;5.71;87.14
74416;SHT31;62850;42.428;25.618;2023-03-02T00:54:18;5.70;87.11
74416;SHT31;62850;42.428;25.618;2023-03-02T00:56:44;5.75;87.17
74416;SHT31;62850;42.428;25.618;2023-03-02T00:59:11;5.68;86.65
74416;SHT31;62850;42.428;25.618;2023-03-02T01:01:59;5.72;86.68
74416;SHT31;62850;42.428;25.618;2023-03-02T01:06:54;5.72;86.70
74416;SHT31;62850;42.428;25.618;2023-03-02T01:09:20;5.71;86.78
74416;SHT31;62850;42.428;25.618;2023-03-02T01:11:45;5.65;86.93
74416;SHT31;62850;42.428;25.618;2023-03-02T01:14:11;5.62;86.53
74416;SHT31;62850;42.428;25.618;2023-03-02T01:16:36;5.60;86.84
74416;SHT31;62850;42.428;25.618;2023-03-02T01:19:02;5.58;86.93
74416;SHT31;62850;42.428;25.618;2023-03-02T01:21:27;5.65;86.90
74416;SHT31;62850;42.428;25.618;2023-03-02T01:23:53;5.64;87.22
74416;SHT31;62850;42.428;25.618;2023-03-02T01:26:18;5.61;87.04
74416;SHT31;62850;42.428;25.618;2023-03-02T01:28:44;5.55;87.16
74416;SHT31;62850;42.428;25.618;2023-03-02T01:31:09;5.55;87.41
74416;SHT31;62850;42.428;25.618;2023-03-02T01:33:34;5.54;87.70
74416;SHT31;62850;42.428;25.618;2023-03-02T01:36:00;5.47;87.89
74416;SHT31;62850;42.428;25.618;2023-03-02T01:38:26;5.39;88.10
74416;SHT31;62850;42.428;25.618;2023-03-02T01:40:52;5.37;87.88
74416;SHT31;62850;42.428;25.618;2023-03-02T01:43:17;5.44;87.86
74416;SHT31;62850;42.428;25.618;2023-03-02T01:45:55;5.44;87.74
74416;SHT31;62850;42.428;25.618;2023-03-02T01:48:31;5.39;87.98
74416;SHT31;62850;42.428;25.618;2023-03-02T01:50:59;5.44;88.22
74416;SHT31;62850;42.428;25.618;2023-03-02T01:53:27;5.43;88.08
74416;SHT31;62850;42.428;25.618;2023-03-02T01:55:54;5.34;88.21
74416;SHT31;62850;42.428;25.618;2023-03-02T01:58:20;5.39;88.55
74416;SHT31;62850;42.428;25.618;2023-03-02T02:00:46;5.46;88.34
74416;SHT31;62850;42.428;25.618;2023-03-02T02:03:19;5.43;88.63
74416;SHT31;62850;42.428;25.618;2023-03-02T02:06:16;5.37;88.50
74416;SHT31;62850;42.428;25.618;2023-03-02T02:08:45;5.40;88.60
74416;SHT31;62850;42.428;25.618;2023-03-02T02:11:11;5.40;88.69
74416;SHT31;62850;42.428;25.618;2023-03-02T02:13:38;5.40;88.68
74416;SHT31;62850;42.428;25.618;2023-03-02T02:16:04;5.41;88.76
74416;SHT31;62850;42.428;25.618;2023-03-02T02:18:29;5.40;88.46
74416;SHT31;62850;42.428;25.618;2023-03-02T02:20:55;5.37;88.46
74416;SHT31;62850;42.428;25.618;2023-03-02T02:26:22;5.43;88.54
74416;SHT31;62850;42.428;25.618;2023-03-02T02:28:59;5.50;88.43
74416;SHT31;62850;42.428;25.618;2023-03-02T02:31:52;5.47;88.27
74416;SHT31;62850;42.428;25.618;2023-03-02T02:34:28;5.37;88.22
74416;SHT31;62850;42.428;25.618;2023-03-02T02:37:19;5.32;88.68
74416;SHT31;62850;42.428;25.618;2023-03-02T02:39:47;5.30;88.71
74416;SHT31;62850;42.428;25.618;2023-03-02T02:42:24;5.29;88.98
74416;SHT31;62850;42.428;25.618;2023-03-02T02:44:56;5.27;88.86
74416;SHT31;62850;42.428;25.618;2023-03-02T02:47:23;5.32;88.71
74416;SHT31;62850;42.428;25.618;2023-03-02T02:49:53;5.26;88.77
74416;SHT31;62850;42.428;25.618;2023-03-02T02:52:21;5.20;89.06
74416;SHT31;62850;42.428;25.618;2023-03-02T02:54:49;5.30;89.15
74416;SHT31;62850;42.428;25.618;2023-03-02T02:57:16;5.36;88.84
74416;SHT31;62850;42.428;25.618;2023-03-02T02:59:46;5.37;88.27
74416;SHT31;62850;42.428;25.618;2023-03-02T03:02:21;5.37;88.42
74416;SHT31;62850;42.428;25.618;2023-03-02T03:04:48;5.44;88.28
74416;SHT31;62850;42.428;25.618;2023-03-02T03:07:22;5.34;88.18
74416;SHT31;62850;42.428;25.618;2023-03-02T03:09:54;5.37;87.74
74416;SHT31;62850;42.428;25.618;2023-03-02T03:12:24;5.36;87.70
74416;SHT31;62850;42.428;25.618;2023-03-02T03:14:51;5.33;88.04
74416;SHT31;62850;42.428;25.618;2023-03-02T03:17:17;5.33;87.77
74416;SHT31;62850;42.428;25.618;2023-03-02T03:19:44;5.32;87.73
74416;SHT31;62850;42.428;25.618;2023-03-02T03:22:12;5.30;87.59
74416;SHT31;62850;42.428;25.618;2023-03-02T03:24:40;5.34;87.31
74416;SHT31;62850;42.428;25.618;2023-03-02T03:27:07;5.37;87.34
74416;SHT31;62850;42.428;25.618;2023-03-02T03:29:35;5.32;87.10
74416;SHT31;62850;42.428;25.618;2023-03-02T03:32:02;5.12;87.44
74416;SHT31;62850;42.428;25.618;2023-03-02T03:34:28;5.24;87.65
74416;SHT31;62850;42.428;25.618;2023-03-02T03:36:54;5.26;87.47
74416;SHT31;62850;42.428;25.618;2023-03-02T03:39:27;5.29;87.37
74416;SHT31;62850;42.428;25.618;2023-03-02T03:41:52;5.33;87.56
74416;SHT31;62850;42.428;25.618;2023-03-02T03:44:18;5.22;87.18
74416;SHT31;62850;42.428;25.618;2023-03-02T03:46:44;5.19;87.68
74416;SHT31;62850;42.428;25.618;2023-03-02T03:49:09;5.26;87.49
74416;SHT31;62850;42.428;25.618;2023-03-02T03:51:35;5.18;87.83
74416;SHT31;62850;42.428;25.618;2023-03-02T03:54:05;5.20;88.09
74416;SHT31;62850;42.428;25.618;2023-03-02T03:56:35;5.32;87.88
74416;SHT31;62850;42.428;25.618;2023-03-02T03:59:02;5.29;87.73
74416;SHT31;62850;42.428;25.618;2023-03-02T04:01:36;5.20;88.21
74416;SHT31;62850;42.428;25.618;2023-03-02T04:04:04;5.22;88.16
74416;SHT31;62850;42.428;25.618;2023-03-02T04:06:29;5.20;88.60
74416;SHT31;62850;42.428;25.618;2023-03-02T04:08:55;5.24;88.26
74416;SHT31;62850;42.428;25.618;2023-03-02T04:11:20;5.20;88.29
74416;SHT31;62850;42.428;25.618;2023-03-02T04:13:46;5.22;88.36
74416;SHT31;62850;42.428;25.618;2023-03-02T04:16:13;5.22;88.37
74416;SHT31;62850;42.428;25.618;2023-03-02T04:18:38;5.19;88.63
74416;SHT31;62850;42.428;25.618;2023-03-02T04:21:04;5.19;88.44
74416;SHT31;62850;42.428;25.618;2023-03-02T04:23:29;5.20;88.08
74416;SHT31;62850;42.428;25.618;2023-03-02T04:25:55;5.20;88.11
74416;SHT31;62850;42.428;25.618;2023-03-02T04:28:20;5.22;88.08
74416;SHT31;62850;42.428;25.618;2023-03-02T04:30:46;5.16;87.86
74416;SHT31;62850;42.428;25.618;2023-03-02T04:33:11;5.16;88.14
74416;SHT31;62850;42.428;25.618;2023-03-02T04:35:37;5.06;87.80
74416;SHT31;62850;42.428;25.618;2023-03-02T04:38:02;5.12;87.74
74416;SHT31;62850;42.428;25.618;2023-03-02T04:40:28;5.16;87.64
74416;SHT31;62850;42.428;25.618;2023-03-02T04:42:54;5.18;87.51
74416;SHT31;62850;42.428;25.618;2023-03-02T04:45:19;5.16;87.85
74416;SHT31;62850;42.428;25.618;2023-03-02T04:47:44;5.23;87.65
74416;SHT31;62850;42.428;25.618;2023-03-02T04:50:12;5.19;87.39
74416;SHT31;62850;42.428;25.618;2023-03-02T04:52:38;5.13;87.31
74416;SHT31;62850;42.428;25.618;2023-03-02T04:55:04;5.22;87.13
74416;SHT31;62850;42.428;25.618;2023-03-02T04:57:31;5.18;87.58
74416;SHT31;62850;42.428;25.618;2023-03-02T04:59:56;5.18;87.57
74416;SHT31;62850;42.428;25.618;2023-03-02T05:02:22;5.20;87.24
74416;SHT31;62850;42.428;25.618;2023-03-02T05:04:47;5.18;87.26
74416;SHT31;62850;42.428;25.618;2023-03-02T05:07:13;5.15;87.19
74416;SHT31;62850;42.428;25.618;2023-03-02T05:09:38;5.16;86.99
74416;SHT31;62850;42.428;25.618;2023-03-02T05:12:03;5.18;87.19
74416;SHT31;62850;42.428;25.618;2023-03-02T05:14:29;5.24;86.98
74416;SHT31;62850;42.428;25.618;2023-03-02T05:16:55;5.26;86.68
74416;SHT31;62850;42.428;25.618;2023-03-02T05:19:21;5.29;86.70
74416;SHT31;62850;42.428;25.618;2023-03-02T05:21:46;5.33;86.35
74416;SHT31;62850;42.428;25.618;2023-03-02T05:24:12;5.33;86.69
74416;SHT31;62850;42.428;25.618;2023-03-02T05:26:39;5.29;86.76
74416;SHT31;62850;42.428;25.618;2023-03-02T05:29:04;5.23;86.43
74416;SHT31;62850;42.428;25.618;2023-03-02T05:33:59;5.27;86.10
74416;SHT31;62850;42.428;25.618;2023-03-02T05:36:25;5.29;86.20
74416;SHT31;62850;42.428;25.618;2023-03-02T05:38:50;5.20;86.54
74416;SHT31;62850;42.428;25.618;2023-03-02T05:41:16;5.19;86.43
74416;SHT31;62850;42.428;25.618;2023-03-02T05:43:42;5.24;86.69
74416;SHT31;62850;42.428;25.618;2023-03-02T05:46:08;5.29;86.66
74416;SHT31;62850;42.428;25.618;2023-03-02T05:48:33;5.29;86.25
74416;SHT31;62850;42.428;25.618;2023-03-02T05:50:59;5.24;86.66
74416;SHT31;62850;42.428;25.618;2023-03-02T05:53:24;5.30;86.69
74416;SHT31;62850;42.428;25.618;2023-03-02T05:55:50;5.27;86.74
74416;SHT31;62850;42.428;25.618;2023-03-02T05:58:17;5.32;86.83
74416;SHT31;62850;42.428;25.618;2023-03-02T06:00:44;5.39;86.59
74416;SHT31;62850;42.428;25.618;2023-03-02T06:03:10;5.44;86.53
74416;SHT31;62850;42.428;25.618;2023-03-02T06:05:35;5.48;86.19
74416;SHT31;62850;42.428;25.618;2023-03-02T06:08:01;5.50;85.98
74416;SHT31;62850;42.428;25.618;2023-03-02T06:10:27;5.44;86.00
74416;SHT31;62850;42.428;25.618;2023-03-02T06:12:52;5.47;85.87
74416;SHT31;62850;42.428;25.618;2023-03-02T06:15:18;5.37;85.77
74416;SHT31;62850;42.428;25.618;2023-03-02T06:17:44;5.37;85.85
74416;SHT31;62850;42.428;25.618;2023-03-02T06:20:11;5.40;85.98
74416;SHT31;62850;42.428;25.618;2023-03-02T06:22:44;5.46;86.01
74416;SHT31;62850;42.428;25.618;2023-03-02T06:25:13;5.47;85.62
74416;SHT31;62850;42.428;25.618;2023-03-02T06:27:40;5.36;85.87
74416;SHT31;62850;42.428;25.618;2023-03-02T06:30:07;5.43;86.01
74416;SHT31;62850;42.428;25.618;2023-03-02T06:32:33;5.43;85.90
74416;SHT31;62850;42.428;25.618;2023-03-02T06:35:00;5.40;85.91
74416;SHT31;62850;42.428;25.618;2023-03-02T06:37:27;5.39;86.01
74416;SHT31;62850;42.428;25.618;2023-03-02T06:39:53;5.48;85.35
74416;SHT31;62850;42.428;25.618;2023-03-02T06:42:19;5.47;85.67
74416;SHT31;62850;42.428;25.618;2023-03-02T06:44:45;5.55;85.79
74416;SHT31;62850;42.428;25.618;2023-03-02T06:47:10;5.54;86.14
74416;SHT31;62850;42.428;25.618;2023-03-02T06:49:36;5.50;85.88
74416;SHT31;62850;42.428;25.618;2023-03-02T06:52:01;5.57;85.56
74416;SHT31;62850;42.428;25.618;2023-03-02T06:54:26;5.53;85.61
74416;SHT31;62850;42.428;25.618;2023-03-02T06:56:52;5.57;85.69
74416;SHT31;62850;42.428;25.618;2023-03-02T06:59:17;5.53;85.42
74416;SHT31;62850;42.428;25.618;2023-03-02T07:01:43;5.55;85.43
74416;SHT31;62850;42.428;25.618;2023-03-02T07:04:08;5.58;85.40
74416;SHT31;62850;42.428;25.618;2023-03-02T07:06:34;5.58;85.20
74416;SHT31;62850;42.428;25.618;2023-03-02T07:09:00;5.60;85.87
74416;SHT31;62850;42.428;25.618;2023-03-02T07:11:26;5.54;85.04
74416;SHT31;62850;42.428;25.618;2023-03-02T07:13:51;5.50;85.05
74416;SHT31;62850;42.428;25.618;2023-03-02T07:16:17;5.53;86.17
74416;SHT31;62850;42.428;25.618;2023-03-02T07:18:42;5.61;85.27
74416;SHT31;62850;42.428;25.618;2023-03-02T07:21:08;5.58;84.91
74416;SHT31;62850;42.428;25.618;2023-03-02T07:23:33;5.62;84.77
74416;SHT31;62850;42.428;25.618;2023-03-02T07:25:59;5.58;84.46
74416;SHT31;62850;42.428;25.618;2023-03-02T07:28:25;5.54;84.89
74416;SHT31;62850;42.428;25.618;2023-03-02T07:30:51;5.57;85.06
74416;SHT31;62850;42.428;25.618;2023-03-02T07:33:18;5.58;85.28
74416;SHT31;62850;42.428;25.618;2023-03-02T07:35:43;5.60;85.25
74416;SHT31;62850;42.428;25.618;2023-03-02T07:38:09;5.50;84.99
74416;SHT31;62850;42.428;25.618;2023-03-02T07:40:34;5.43;85.45
74416;SHT31;62850;42.428;25.618;2023-03-02T07:43:01;5.41;85.60
74416;SHT31;62850;42.428;25.618;2023-03-02T07:45:27;5.48;85.78
74416;SHT31;62850;42.428;25.618;2023-03-02T07:47:52;5.48;85.69
74416;SHT31;62850;42.428;25.618;2023-03-02T07:50:18;5.50;85.48
74416;SHT31;62850;42.428;25.618;2023-03-02T07:52:43;5.50;85.61
74416;SHT31;62850;42.428;25.618;2023-03-02T07:55:09;5.46;85.86
74416;SHT31;62850;42.428;25.618;2023-03-02T07:57:35;5.50;86.06
74416;SHT31;62850;42.428;25.618;2023-03-02T08:00:00;5.51;86.51
74416;SHT31;62850;42.428;25.618;2023-03-02T08:02:26;5.50;86.23
74416;SHT31;62850;42.428;25.618;2023-03-02T08:04:52;5.51;85.98
74416;SHT31;62850;42.428;25.618;2023-03-02T08:07:18;5.48;86.03
74416;SHT31;62850;42.428;25.618;2023-03-02T08:09:43;5.51;85.93
74416;SHT31;62850;42.428;25.618;2023-03-02T08:12:09;5.53;86.17
74416;SHT31;62850;42.428;25.618;2023-03-02T08:14:35;5.46;86.78
74416;SHT31;62850;42.428;25.618;2023-03-02T08:17:03;5.54;86.41
74416;SHT31;62850;42.428;25.618;2023-03-02T08:19:29;5.50;86.34
74416;SHT31;62850;42.428;25.618;2023-03-02T08:21:54;5.53;86.58
74416;SHT31;62850;42.428;25.618;2023-03-02T08:24:20;5.57;86.49
74416;SHT31;62850;42.428;25.618;2023-03-02T08:26:45;5.47;87.01
74416;SHT31;62850;42.428;25.618;2023-03-02T08:29:11;5.54;86.79
74416;SHT31;62850;42.428;25.618;2023-03-02T08:31:36;5.54;86.44
74416;SHT31;62850;42.428;25.618;2023-03-02T08:34:02;5.53;86.49
74416;SHT31;62850;42.428;25.618;2023-03-02T08:36:27;5.62;86.46
74416;SHT31;62850;42.428;25.618;2023-03-02T08:38:53;5.57;86.81
74416;SHT31;62850;42.428;25.618;2023-03-02T08:41:20;5.47;86.65
74416;SHT31;62850;42.428;25.618;2023-03-02T08:43:47;5.44;86.56
74416;SHT31;62850;42.428;25.618;2023-03-02T08:46:15;5.40;86.90
74416;SHT31;62850;42.428;25.618;2023-03-02T08:48:41;5.44;86.84
74416;SHT31;62850;42.428;25.618;2023-03-02T08:51:10;5.46;86.92
74416;SHT31;62850;42.428;25.618;2023-03-02T08:53:39;5.50;87.34
74416;SHT31;62850;42.428;25.618;2023-03-02T08:56:15;5.51;86.75
74416;SHT31;62850;42.428;25.618;2023-03-02T08:58:40;5.53;86.54
74416;SHT31;62850;42.428;25.618;2023-03-02T09:01:12;5.54;86.79
74416;SHT31;62850;42.428;25.618;2023-03-02T09:03:38;5.60;86.57
74416;SHT31;62850;42.428;25.618;2023-03-02T09:06:03;5.60;86.75
74416;SHT31;62850;42.428;25.618;2023-03-02T09:08:29;5.61;86.72
74416;SHT31;62850;42.428;25.618;2023-03-02T09:10:54;5.62;86.60
74416;SHT31;62850;42.428;25.618;2023-03-02T09:13:20;5.61;86.50
74416;SHT31;62850;42.428;25.618;2023-03-02T09:15:45;5.62;86.35
74416;SHT31;62850;42.428;25.618;2023-03-02T09:18:11;5.70;85.93
74416;SHT31;62850;42.428;25.618;2023-03-02T09:20:36;5.65;85.57
74416;SHT31;62850;42.428;25.618;2023-03-02T09:23:02;5.61;85.30
74416;SHT31;62850;42.428;25.618;2023-03-02T09:25:28;5.67;85.47
74416;SHT31;62850;42.428;25.618;2023-03-02T09:27:53;5.64;85.72
74416;SHT31;62850;42.428;25.618;2023-03-02T09:30:19;5.61;86.09
74416;SHT31;62850;42.428;25.618;2023-03-02T09:32:44;5.68;86.12
74416;SHT31;62850;42.428;25.618;2023-03-02T09:35:10;5.72;85.52
74416;SHT31;62850;42.428;25.618;2023-03-02T09:37:35;5.68;85.50
74416;SHT31;62850;42.428;25.618;2023-03-02T09:40:04;5.68;85.44
74416;SHT31;62850;42.428;25.618;2023-03-02T09:55:44;5.74;84.46
74416;SHT31;62850;42.428;25.618;2023-03-02T09:58:18;5.67;84.88
74416;SHT31;62850;42.428;25.618;2023-03-02T10:00:45;5.70;84.46
74416;SHT31;62850;42.428;25.618;2023-03-02T10:05:53;5.65;84.25
74416;SHT31;62850;42.428;25.618;2023-03-02T10:08:21;5.61;84.41
74416;SHT31;62850;42.428;25.618;2023-03-02T10:16:31;5.54;84.49
74416;SHT31;62850;42.428;25.618;2023-03-02T10:19:28;5.54;84.32
74416;SHT31;62850;42.428;25.618;2023-03-02T10:22:17;5.50;84.20
74416;SHT31;62850;42.428;25.618;2023-03-02T10:27:37;5.60;84.06
74416;SHT31;62850;42.428;25.618;2023-03-02T10:30:34;5.70;84.04
74416;SHT31;62850;42.428;25.618;2023-03-02T10:33:12;5.64;84.08
74416;SHT31;62850;42.428;25.618;2023-03-02T10:35:47;5.55;84.22
74416;SHT31;62850;42.428;25.618;2023-03-02T10:38:14;5.57;84.16
74416;SHT31;62850;42.428;25.618;2023-03-02T10:40:52;5.65;84.22
74416;SHT31;62850;42.428;25.618;2023-03-02T10:43:36;5.67;83.73
74416;SHT31;62850;42.428;25.618;2023-03-02T10:46:06;5.61;83.78
74416;SHT31;62850;42.428;25.618;2023-03-02T10:48:45;5.64;84.02
74416;SHT31;62850;42.428;25.618;2023-03-02T10:54:02;5.71;83.90
74416;SHT31;62850;42.428;25.618;2023-03-02T10:56:28;5.84;83.95
74416;SHT31;62850;42.428;25.618;2023-03-02T10:58:54;5.85;83.67
74416;SHT31;62850;42.428;25.618;2023-03-02T11:01:27;5.79;83.39
74416;SHT31;62850;42.428;25.618;2023-03-02T11:03:58;5.87;83.50
74416;SHT31;62850;42.428;25.618;2023-03-02T11:06:24;5.85;83.34
74416;SHT31;62850;42.428;25.618;2023-03-02T11:08:58;5.97;83.02
74416;SHT31;62850;42.428;25.618;2023-03-02T11:11:24;5.99;82.55
74416;SHT31;62850;42.428;25.618;2023-03-02T11:13:49;5.99;82.69
74416;SHT31;62850;42.428;25.618;2023-03-02T11:21:26;6.09;82.08
74416;SHT31;62850;42.428;25.618;2023-03-02T11:26:39;6.06;81.39
74416;SHT31;62850;42.428;25.618;2023-03-02T11:37:27;6.22;80.79
74416;SHT31;62850;42.428;25.618;2023-03-02T11:42:45;6.21;80.94
74416;SHT31;62850;42.428;25.618;2023-03-02T11:50:44;6.30;80.05
74416;SHT31;62850;42.428;25.618;2023-03-02T11:53:15;6.33;79.91
74416;SHT31;62850;42.428;25.618;2023-03-02T11:55:45;6.36;79.78
74416;SHT31;62850;42.428;25.618;2023-03-02T11:58:17;6.39;79.96
74416;SHT31;62850;42.428;25.618;2023-03-02T12:00:43;6.42;79.79
74416;SHT31;62850;42.428;25.618;2023-03-02T12:06:23;6.30;80.29
74416;SHT31;62850;42.428;25.618;2023-03-02T12:09:24;6.40;79.87
74416;SHT31;62850;42.428;25.618;2023-03-02T12:14:43;6.39;79.75
74416;SHT31;62850;42.428;25.618;2023-03-02T12:17:41;6.34;80.05
74416;SHT31;62850;42.428;25.618;2023-03-02T12:22:33;6.32;79.82
74416;SHT31;62850;42.428;25.618;2023-03-02T12:25:24;6.30;79.88
74416;SHT31;62850;42.428;25.618;2023-03-02T12:27:52;6.30;79.79
74416;SHT31;62850;42.428;25.618;2023-03-02T12:35:36;6.66;79.34
74416;SHT31;62850;42.428;25.618;2023-03-02T12:38:03;6.66;79.25
74416;SHT31;62850;42.428;25.618;2023-03-02T12:43:34;6.60;79.42
74416;SHT31;62850;42.428;25.618;2023-03-02T12:46:23;6.43;79.43
74416;SHT31;62850;42.428;25.618;2023-03-02T12:48:58;6.43;79.49
74416;SHT31;62850;42.428;25.618;2023-03-02T12:51:27;6.49;78.99
74416;SHT31;62850;42.428;25.618;2023-03-02T12:54:06;6.42;79.17
74416;SHT31;62850;42.428;25.618;2023-03-02T12:56:36;6.40;79.01
74416;SHT31;62850;42.428;25.618;2023-03-02T12:59:02;6.39;78.90
74416;SHT31;62850;42.428;25.618;2023-03-02T13:01:29;6.33;78.84
74416;SHT31;62850;42.428;25.618;2023-03-02T13:03:55;6.36;78.91
74416;SHT31;62850;42.428;25.618;2023-03-02T13:06:24;6.37;78.73
74416;SHT31;62850;42.428;25.618;2023-03-02T13:08:53;6.34;79.05
74416;SHT31;62850;42.428;25.618;2023-03-02T13:11:32;6.36;78.93
74416;SHT31;62850;42.428;25.618;2023-03-02T13:13:59;6.40;78.88
74416;SHT31;62850;42.428;25.618;2023-03-02T13:16:29;6.44;78.61
74416;SHT31;62850;42.428;25.618;2023-03-02T13:19:00;6.33;78.49
74416;SHT31;62850;42.428;25.618;2023-03-02T13:21:30;6.37;78.43
74416;SHT31;62850;42.428;25.618;2023-03-02T13:23:57;6.36;78.48
74416;SHT31;62850;42.428;25.618;2023-03-02T13:26:32;6.34;78.49
74416;SHT31;62850;42.428;25.618;2023-03-02T13:29:16;6.33;78.30
74416;SHT31;62850;42.428;25.618;2023-03-02T13:31:47;6.32;78.37
74416;SHT31;62850;42.428;25.618;2023-03-02T13:34:25;6.39;78.05
74416;SHT31;62850;42.428;25.618;2023-03-02T13:36:51;6.34;78.27
74416;SHT31;62850;42.428;25.618;2023-03-02T13:39:20;6.19;78.03
74416;SHT31;62850;42.428;25.618;2023-03-02T13:41:57;6.16;78.00
74416;SHT31;62850;42.428;25.618;2023-03-02T13:44:28;6.25;78.11
74416;SHT31;62850;42.428;25.618;2023-03-02T13:46:54;6.30;78.10
74416;SHT31;62850;42.428;25.618;2023-03-02T13:49:33;6.29;78.07
74416;SHT31;62850;42.428;25.618;2023-03-02T13:52:03;6.37;78.05
74416;SHT31;62850;42.428;25.618;2023-03-02T13:54:30;6.33;77.87
74416;SHT31;62850;42.428;25.618;2023-03-02T13:56:58;6.36;78.01
74416;SHT31;62850;42.428;25.618;2023-03-02T13:59:25;6.42;78.07
74416;SHT31;62850;42.428;25.618;2023-03-02T14:01:51;6.43;78.01
74416;SHT31;62850;42.428;25.618;2023-03-02T14:04:19;6.43;77.67
74416;SHT31;62850;42.428;25.618;2023-03-02T14:06:52;6.33;77.96
74416;SHT31;62850;42.428;25.618;2023-03-02T14:09:18;6.36;77.36
74416;SHT31;62850;42.428;25.618;2023-03-02T14:11:46;6.44;77.32
74416;SHT31;62850;42.428;25.618;2023-03-02T14:14:15;6.36;77.45
74416;SHT31;62850;42.428;25.618;2023-03-02T14:16:41;6.34;77.24
74416;SHT31;62850;42.428;25.618;2023-03-02T14:19:10;6.33;77.47
74416;SHT31;62850;42.428;25.618;2023-03-02T14:21:37;6.34;77.13
74416;SHT31;62850;42.428;25.618;2023-03-02T14:24:03;6.34;77.51
74416;SHT31;62850;42.428;25.618;2023-03-02T14:29:01;6.33;77.40
74416;SHT31;62850;42.428;25.618;2023-03-02T14:31:28;6.30;77.52
74416;SHT31;62850;42.428;25.618;2023-03-02T14:33:53;6.36;77.48
74416;SHT31;62850;42.428;25.618;2023-03-02T14:36:32;6.37;77.18
74416;SHT31;62850;42.428;25.618;2023-03-02T14:39:02;6.40;77.22
74416;SHT31;62850;42.428;25.618;2023-03-02T14:41:28;6.43;77.29
74416;SHT31;62850;42.428;25.618;2023-03-02T14:43:54;6.37;77.37
74416;SHT31;62850;42.428;25.618;2023-03-02T14:46:20;6.30;77.94
74416;SHT31;62850;42.428;25.618;2023-03-02T14:48:45;6.34;77.85
74416;SHT31;62850;42.428;25.618;2023-03-02T14:51:19;6.26;78.11
74416;SHT31;62850;42.428;25.618;2023-03-02T14:53:45;6.25;78.22
74416;SHT31;62850;42.428;25.618;2023-03-02T14:56:12;6.22;78.42
74416;SHT31;62850;42.428;25.618;2023-03-02T14:58:38;6.32;78.28
74416;SHT31;62850;42.428;25.618;2023-03-02T15:01:03;6.36;78.15
74416;SHT31;62850;42.428;25.618;2023-03-02T15:03:29;6.49;78.20
74416;SHT31;62850;42.428;25.618;2023-03-02T15:05:54;6.47;78.16
74416;SHT31;62850;42.428;25.618;2023-03-02T15:08:21;6.60;77.97
74416;SHT31;62850;42.428;25.618;2023-03-02T15:10:47;6.58;77.94
74416;SHT31;62850;42.428;25.618;2023-03-02T15:13:13;6.57;77.81
74416;SHT31;62850;42.428;25.618;2023-03-02T15:15:41;6.60;77.90
74416;SHT31;62850;42.428;25.618;2023-03-02T15:18:08;6.58;78.10
74416;SHT31;62850;42.428;25.618;2023-03-02T15:20:34;6.69;77.92
74416;SHT31;62850;42.428;25.618;2023-03-02T15:23:00;6.58;77.90
74416;SHT31;62850;42.428;25.618;2023-03-02T15:25:25;6.61;78.06
74416;SHT31;62850;42.428;25.618;2023-03-02T15:27:52;6.54;78.10
74416;SHT31;62850;42.428;25.618;2023-03-02T15:30:18;6.53;78.37
74416;SHT31;62850;42.428;25.618;2023-03-02T15:32:44;6.50;78.50
74416;SHT31;62850;42.428;25.618;2023-03-02T15:35:09;6.51;78.60
74416;SHT31;62850;42.428;25.618;2023-03-02T15:37:37;6.53;78.58
74416;SHT31;62850;42.428;25.618;2023-03-02T15:40:03;6.58;78.41
74416;SHT31;62850;42.428;25.618;2023-03-02T15:42:29;6.64;78.33
74416;SHT31;62850;42.428;25.618;2023-03-02T15:44:54;6.64;77.88
74416;SHT31;62850;42.428;25.618;2023-03-02T15:47:20;6.63;78.12
74416;SHT31;62850;42.428;25.618;2023-03-02T15:49:45;6.66;78.02
74416;SHT31;62850;42.428;25.618;2023-03-02T15:52:11;6.66;77.85
74416;SHT31;62850;42.428;25.618;2023-03-02T15:54:37;6.64;77.73
74416;SHT31;62850;42.428;25.618;2023-03-02T15:57:02;6.70;77.51
74416;SHT31;62850;42.428;25.618;2023-03-02T15:59:29;6.70;77.27
74416;SHT31;62850;42.428;25.618;2023-03-02T16:01:55;6.71;77.18
74416;SHT31;62850;42.428;25.618;2023-03-02T16:04:27;6.69;77.12
74416;SHT31;62850;42.428;25.618;2023-03-02T16:06:53;6.67;77.38
74416;SHT31;62850;42.428;25.618;2023-03-02T16:09:21;6.69;77.04
74416;SHT31;62850;42.428;25.618;2023-03-02T16:11:47;6.69;77.40
74416;SHT31;62850;42.428;25.618;2023-03-02T16:14:13;6.74;77.32
74416;SHT31;62850;42.428;25.618;2023-03-02T16:16:43;6.70;77.08
74416;SHT31;62850;42.428;25.618;2023-03-02T16:19:11;6.71;77.14
74416;SHT31;62850;42.428;25.618;2023-03-02T16:21:37;6.71;76.99
74416;SHT31;62850;42.428;25.618;2023-03-02T16:24:03;6.63;77.14
74416;SHT31;62850;42.428;25.618;2023-03-02T16:26:31;6.74;77.01
74416;SHT31;62850;42.428;25.618;2023-03-02T16:28:58;6.66;76.66
74416;SHT31;62850;42.428;25.618;2023-03-02T16:31:23;6.61;76.85
74416;SHT31;62850;42.428;25.618;2023-03-02T16:33:52;6.66;76.63
74416;SHT31;62850;42.428;25.618;2023-03-02T16:36:19;6.70;76.73
74416;SHT31;62850;42.428;25.618;2023-03-02T16:38:44;6.53;77.62
74416;SHT31;62850;42.428;25.618;2023-03-02T16:41:18;6.54;77.78
74416;SHT31;62850;42.428;25.618;2023-03-02T16:43:47;6.53;77.79
74416;SHT31;62850;42.428;25.618;2023-03-02T16:46:14;6.47;78.03
74416;SHT31;62850;42.428;25.618;2023-03-02T16:48:40;6.43;78.05
74416;SHT31;62850;42.428;25.618;2023-03-02T16:51:06;6.34;78.52
74416;SHT31;62850;42.428;25.618;2023-03-02T16:53:31;6.22;78.45